DW4577 Cagliari IT current weather conditions

sailwx.info

Wind from 228

Air temperature 10.6° C
Dewpoint 7.4° C

Last reported at 2020-Jan-27 07:01 UTC.
Time now 2020-Jan-27 08:31 UTC

Location: N 39°13' E 009°08'.
View on Google Maps.

See reports from other nearby stations

  
Tides and Currents Weather Stations Pressure Air Temp Water Temp Dewpoint Dewpoint Depression Visibility Wind Speed Wind Dir Waves Ship Positions
date/time (UTC)wind fromknots sea level pressurealtimeterstation pressurevisibilityair tempwater tempwave heightnotes
2020-Jan-27 07:01 228 10.6
2020-Jan-27 06:46 227 10.0
2020-Jan-27 06:31 227 9.4
2020-Jan-27 06:16 227 9.4
2020-Jan-27 06:02 221 9.4
2020-Jan-27 05:47 221 10.0
2020-Jan-27 05:32 221 10.6
2020-Jan-27 05:16 221 10.6
2020-Jan-27 05:02 221 10.6
2020-Jan-27 04:47 221 10.0
2020-Jan-27 04:32 221 10.0
2020-Jan-27 04:16 221 9.4
2020-Jan-27 03:45 213 9.4
2020-Jan-27 03:30 213 10.0
2020-Jan-27 03:15 208 10.0
2020-Jan-27 03:00 208 10.0
2020-Jan-27 02:45 208 10.0
2020-Jan-27 01:45 208 10.6
2020-Jan-27 01:30 208 10.6
2020-Jan-27 01:15 208 10.6
2020-Jan-26 22:45 208 11.1
2020-Jan-26 22:30 208 11.1
2020-Jan-26 22:15 208 11.7
2020-Jan-26 21:45 208 11.1
2020-Jan-26 21:15 208 11.1
2020-Jan-26 20:15 208 11.7
2020-Jan-26 20:01 208 11.7
2020-Jan-26 19:15 208 12.2
2020-Jan-26 19:00 208 12.2
2020-Jan-26 18:30 208 12.8
2020-Jan-26 18:15 208 12.8
2020-Jan-26 17:15 208 13.3
2020-Jan-26 17:00 208 13.3
2020-Jan-26 16:45 208 13.9
2020-Jan-26 16:30 208 13.9
2020-Jan-26 15:15 215 3 gusting 9 15.6
2020-Jan-26 15:00 215 1 gusting 6 16.1
2020-Jan-26 14:46 215 2 gusting 7 16.1
2020-Jan-26 14:30 215 15.6
2020-Jan-26 14:15 215 16.1
2020-Jan-26 13:45 215 0 gusting 6 15.6
2020-Jan-26 13:15 217 6 gusting 14 16.1
2020-Jan-26 13:00 222 0 gusting 7 16.7
2020-Jan-26 12:46 232 16.7
2020-Jan-26 12:31 232 16.1
2020-Jan-26 12:15 232 16.1
2020-Jan-26 12:00 232 16.1
2020-Jan-26 11:45 232 15.6
2020-Jan-26 11:30 232 15.0
2020-Jan-26 11:15 232 14.4
2020-Jan-26 11:00 232 14.4
2020-Jan-26 10:46 232 13.9
2020-Jan-26 10:31 232 13.3
2020-Jan-26 10:01 219 7 gusting 12 12.2
2020-Jan-26 09:45 216 12.2
2020-Jan-26 09:30 215 11.7
2020-Jan-26 09:15 215 11.1
2020-Jan-26 09:00 215 1 gusting 13 10.6
2020-Jan-26 08:45 207 4 gusting 9 10.0
2020-Jan-26 08:30 206 2 gusting 13 9.4
2020-Jan-26 07:45 154 8.9
2020-Jan-26 07:30 154 8.3
2020-Jan-26 07:15 154 8.3
2020-Jan-26 05:15 154 8.3
2020-Jan-26 05:00 154 8.3
2020-Jan-26 03:30 154 8.9
2020-Jan-26 03:16 154 8.9
2020-Jan-26 03:00 154 9.4
2020-Jan-26 02:45 154 9.4
2020-Jan-26 02:31 154 9.4
2020-Jan-26 02:15 154 9.4
2020-Jan-26 01:45 154 10.0
2020-Jan-26 01:30 154 10.0
2020-Jan-26 00:45 154 10.0
2020-Jan-26 00:30 154 10.0
2020-Jan-26 00:16 154 10.0
2020-Jan-25 23:45 154 10.0
2020-Jan-25 23:15 154 10.6
2020-Jan-25 22:45 154 10.6
2020-Jan-25 22:30 154 10.6
2020-Jan-25 22:15 154 10.6
2020-Jan-25 22:00 154 11.1
2020-Jan-25 21:45 154 11.1
2020-Jan-25 21:30 154 11.1
2020-Jan-25 21:15 154 11.1
2020-Jan-25 21:00 154 11.1
2020-Jan-25 20:45 154 11.1
2020-Jan-25 20:30 154 11.1
2020-Jan-25 16:00 154 15.0
2020-Jan-25 15:45 154 15.0
2020-Jan-25 15:30 154 15.0
2020-Jan-25 15:15 154 15.6
2020-Jan-25 15:00 154 15.6
2020-Jan-25 14:45 154 15.6
2020-Jan-25 14:30 154 15.6
2020-Jan-25 14:16 154 15.6
2020-Jan-25 14:00 154 15.6
2020-Jan-25 13:45 140 0 gusting 12 15.6
2020-Jan-25 13:30 133 0 gusting 10 15.6
2020-Jan-25 13:15 123 15.6
2020-Jan-25 13:00 121 15.6
2020-Jan-25 12:45 118 15.6
2020-Jan-25 12:30 106 15.6
2020-Jan-25 12:15 105 15.6
2020-Jan-25 12:00 086 15.6
2020-Jan-25 11:45 086 15.6
2020-Jan-25 11:30 086 15.6
2020-Jan-25 11:15 086 15.6
2020-Jan-25 11:00 086 15.0
2020-Jan-25 10:45 086 14.4
2020-Jan-25 10:30 086 13.9
2020-Jan-25 10:15 086 13.3
2020-Jan-25 10:00 094 13.3
2020-Jan-25 09:46 117 12.8
2020-Jan-25 09:31 117 12.8
2020-Jan-25 09:15 117 12.2
2020-Jan-25 09:00 117 12.2
2020-Jan-25 08:46 117 12.2
2020-Jan-25 08:31 117 12.2
2020-Jan-25 08:16 117 11.7
2020-Jan-25 08:00 117 11.1